Time;durP1;ratioP1;P1;durP2;ratioP2;P2;SDS_P1;SDS_P2;PMS_P1;PMS_P2;Temp;Humidity;BMP_temperature;BMP_pressure;BME280_temperature;BME280_humidity;BME280_pressure;Samples;Min_cycle;Max_cycle;Signal;HPM_P1;HPM_P2
2021/10/24 00:00:09;;;;;;;38.20;15.80;;;;;;;2.92;76.00;101749.27;113049;1190;22470;-57
2021/10/24 00:02:57;;;;;;;39.10;14.90;;;;;;;2.87;76.04;101749.73;112707;1199;24117;-55
2021/10/24 00:05:26;;;;;;;33.40;13.60;;;;;;;2.82;75.95;101752.64;112950;1197;22441;-56
2021/10/24 00:07:54;;;;;;;38.00;14.00;;;;;;;2.78;76.01;101756.02;112976;1197;26355;-57
2021/10/24 00:10:22;;;;;;;33.00;11.90;;;;;;;2.73;75.96;101751.98;113099;1183;26251;-56
2021/10/24 00:12:51;;;;;;;38.90;12.60;;;;;;;2.69;75.89;101751.73;113319;1197;22700;-54
2021/10/24 00:15:19;;;;;;;34.10;12.30;;;;;;;2.65;75.88;101754.88;113103;1197;25126;-56
2021/10/24 00:17:47;;;;;;;34.70;12.30;;;;;;;2.62;75.97;101755.65;113022;1197;25109;-57
2021/10/24 00:20:15;;;;;;;32.60;10.90;;;;;;;2.61;76.01;101765.73;112990;1197;26355;-57
2021/10/24 00:22:44;;;;;;;30.30;11.00;;;;;;;2.57;75.91;101764.61;112937;1197;24091;-54
2021/10/24 00:25:13;;;;;;;31.20;10.20;;;;;;;2.53;75.93;101772.46;113090;1197;25066;-54
2021/10/24 00:27:43;;;;;;;28.40;10.90;;;;;;;2.49;75.88;101770.71;113079;1197;24146;-56
2021/10/24 00:30:11;;;;;;;29.90;11.60;;;;;;;2.46;75.92;101771.96;112897;1192;24054;-57
2021/10/24 00:32:39;;;;;;;29.40;10.80;;;;;;;2.44;75.92;101772.43;113078;1197;23494;-54
2021/10/24 00:35:09;;;;;;;32.60;10.00;;;;;;;2.41;75.93;101770.52;112997;1191;22438;-55
2021/10/24 00:37:38;;;;;;;29.40;10.50;;;;;;;2.38;76.00;101775.63;113030;1192;22456;-55
2021/10/24 00:40:09;;;;;;;28.00;9.90;;;;;;;2.34;75.93;101776.23;113184;1190;25183;-57
2021/10/24 00:42:47;;;;;;;28.60;10.20;;;;;;;2.29;75.97;101777.00;113134;1197;25251;-56
2021/10/24 00:45:15;;;;;;;26.00;8.80;;;;;;;2.25;76.05;101778.32;113367;1191;22565;-58
2021/10/24 00:47:43;;;;;;;27.10;10.10;;;;;;;2.21;76.04;101779.95;113313;1197;22434;-58
2021/10/24 00:53:05;;;;;;;28.60;10.40;;;;;;;2.19;75.97;101772.77;112005;1205;558166;-76
2021/10/24 00:55:33;;;;;;;26.90;9.70;;;;;;;2.12;75.90;101771.94;113295;1199;22426;-77
2021/10/24 00:58:02;;;;;;;26.50;9.00;;;;;;;2.11;76.00;101768.40;113598;1199;22958;-77
2021/10/24 01:00:30;;;;;;;25.50;9.40;;;;;;;2.07;75.82;101765.70;113864;1194;25163;-76
2021/10/24 01:03:00;;;;;;;29.00;11.10;;;;;;;2.03;75.95;101766.77;113880;1194;24084;-77
2021/10/24 01:05:30;;;;;;;30.80;10.20;;;;;;;2.01;75.99;101767.38;113910;1195;22433;-76
2021/10/24 01:07:59;;;;;;;;;;;;;;;1.98;75.95;101768.23;113916;1195;22477;-77
2021/10/24 01:10:27;;;;;;;26.70;10.60;;;;;;;1.94;75.88;101771.66;114287;1195;22413;-77
2021/10/24 01:12:55;;;;;;;27.30;10.30;;;;;;;1.89;75.86;101767.23;113883;1195;25658;-76
2021/10/24 01:15:23;;;;;;;29.40;9.50;;;;;;;1.87;75.87;101763.91;113880;1195;24118;-76
2021/10/24 01:17:51;;;;;;;30.80;9.70;;;;;;;1.83;75.90;101770.58;113798;1195;22480;-77
2021/10/24 01:20:21;;;;;;;32.30;9.80;;;;;;;1.81;75.88;101767.88;113814;1196;22441;-76
2021/10/24 01:22:49;;;;;;;27.70;10.10;;;;;;;1.77;75.90;101768.79;113858;1195;24190;-77
2021/10/24 01:25:19;;;;;;;35.00;11.50;;;;;;;1.74;76.01;101767.20;113914;1195;22639;-77
2021/10/24 01:27:48;;;;;;;33.70;12.30;;;;;;;1.71;76.05;101766.00;114251;1195;22409;-77
2021/10/24 01:30:17;;;;;;;40.20;14.90;;;;;;;1.69;76.06;101770.77;113969;1195;24159;-77
2021/10/24 01:32:45;;;;;;;35.50;14.60;;;;;;;1.67;76.00;101776.52;113954;1195;25056;-76
2021/10/24 01:35:13;;;;;;;46.80;16.80;;;;;;;1.65;76.00;101777.98;113993;1195;22435;-77
2021/10/24 01:37:43;;;;;;;39.50;14.80;;;;;;;1.62;75.93;101781.82;113873;1195;22451;-77
2021/10/24 01:40:13;;;;;;;37.00;14.30;;;;;;;1.59;75.95;101776.27;113937;1195;22400;-76
2021/10/24 01:42:54;;;;;;;34.40;13.10;;;;;;;1.59;76.05;101776.21;113907;1195;22536;-76
2021/10/24 01:45:24;;;;;;;32.70;12.60;;;;;;;1.60;75.98;101773.55;114070;1195;22553;-76
2021/10/24 01:47:53;;;;;;;38.20;12.90;;;;;;;1.60;76.12;101774.41;113944;1195;23159;-77
2021/10/24 01:50:21;;;;;;;27.90;11.50;;;;;;;1.62;76.17;101775.83;114045;1195;26470;-77
2021/10/24 01:52:50;;;;;;;32.10;10.70;;;;;;;1.63;76.20;101773.08;113926;1195;22480;-76
2021/10/24 01:55:21;;;;;;;34.10;11.40;;;;;;;1.60;76.19;101770.01;113951;1195;24060;-76
2021/10/24 01:57:53;;;;;;;32.50;11.10;;;;;;;1.58;76.21;101768.42;114038;1195;22627;-76
2021/10/24 02:00:22;;;;;;;30.10;10.10;;;;;;;1.58;76.32;101771.25;113982;1195;24036;-76
2021/10/24 02:02:50;;;;;;;29.50;10.00;;;;;;;1.59;76.72;101771.73;113869;1195;22425;-77
2021/10/24 02:05:18;;;;;;;29.00;9.00;;;;;;;1.61;76.87;101771.98;113869;1195;22447;-76
2021/10/24 02:07:45;;;;;;;30.60;10.20;;;;;;;1.64;76.87;101772.00;113891;1195;23723;-76
2021/10/24 02:10:17;;;;;;;30.80;10.20;;;;;;;1.65;77.02;101770.27;113997;1195;22446;-77
2021/10/24 02:12:45;;;;;;;28.70;9.20;;;;;;;1.68;77.38;101773.60;113931;1195;25119;-77
2021/10/24 02:15:13;;;;;;;24.70;8.80;;;;;;;1.69;77.38;101771.96;113782;1195;22491;-77
2021/10/24 02:17:42;;;;;;;27.90;9.00;;;;;;;1.70;77.13;101770.55;114305;1196;22425;-77
2021/10/24 02:20:10;;;;;;;28.60;9.00;;;;;;;1.70;77.10;101776.30;114067;1195;24171;-77
2021/10/24 02:22:38;;;;;;;29.30;9.00;;;;;;;1.68;77.15;101773.52;113771;1182;24053;-76
2021/10/24 02:25:10;;;;;;;29.60;9.40;;;;;;;1.67;77.21;101777.38;113835;1195;22452;-76
2021/10/24 02:27:39;;;;;;;25.60;7.80;;;;;;;1.68;77.33;101778.10;113870;1195;22548;-76
2021/10/24 02:30:10;;;;;;;25.00;7.00;;;;;;;1.69;77.47;101780.93;113998;1195;25239;-76
2021/10/24 02:32:38;;;;;;;28.00;7.30;;;;;;;1.69;77.61;101778.96;114047;1189;27716;-77
2021/10/24 02:35:08;;;;;;;29.20;7.90;;;;;;;1.70;77.58;101784.02;113820;1189;22427;-77
2021/10/24 02:37:38;;;;;;;24.10;8.00;;;;;;;1.68;77.59;101784.06;113888;1195;25049;-76
2021/10/24 02:40:12;;;;;;;25.20;6.90;;;;;;;1.69;77.51;101782.34;113915;1195;22437;-77
2021/10/24 02:42:42;;;;;;;22.90;7.60;;;;;;;1.68;77.44;101781.71;114000;1195;24096;-76
2021/10/24 02:45:11;;;;;;;22.60;6.20;;;;;;;1.66;77.39;101789.16;113838;1188;24062;-76
2021/10/24 02:47:40;;;;;;;21.50;6.30;;;;;;;1.65;77.16;101793.40;113893;1189;24199;-77
2021/10/24 02:50:09;;;;;;;21.70;5.60;;;;;;;1.63;77.12;101793.45;113815;1195;24145;-76
2021/10/24 02:52:36;;;;;;;20.50;5.60;;;;;;;1.61;77.08;101797.70;113874;1194;24275;-77
2021/10/24 02:55:06;;;;;;;20.80;6.20;;;;;;;1.59;77.06;101795.48;113793;1195;22815;-76
2021/10/24 02:57:35;;;;;;;22.30;5.90;;;;;;;1.56;77.04;101796.95;113824;1195;22748;-77
2021/10/24 03:00:05;;;;;;;28.30;7.60;;;;;;;1.53;76.96;101800.16;113957;1195;25415;-76
2021/10/24 03:02:36;;;;;;;24.30;7.80;;;;;;;1.49;76.92;101801.83;114286;1195;22522;-77
2021/10/24 03:05:06;;;;;;;22.30;8.40;;;;;;;1.43;76.96;101804.85;113880;1195;22434;-76
2021/10/24 03:07:34;;;;;;;22.90;7.90;;;;;;;1.39;76.92;101806.94;113875;1195;24085;-77
2021/10/24 03:10:04;;;;;;;28.70;8.80;;;;;;;1.35;76.87;101808.55;113801;1195;24054;-77
2021/10/24 03:12:32;;;;;;;22.80;9.40;;;;;;;1.31;76.90;101806.53;113931;1195;24222;-77
2021/10/24 03:15:02;;;;;;;25.80;8.70;;;;;;;1.26;76.88;101806.02;113836;1195;22553;-76
2021/10/24 03:17:29;;;;;;;19.90;7.40;;;;;;;1.23;76.74;101807.55;113902;1196;22585;-76
2021/10/24 03:19:58;;;;;;;22.80;7.90;;;;;;;1.18;76.81;101808.21;113909;1195;22402;-76
2021/10/24 03:22:25;;;;;;;26.10;9.00;;;;;;;1.15;76.77;101810.14;113894;1195;22602;-76
2021/10/24 03:24:53;;;;;;;21.10;7.20;;;;;;;1.10;76.71;101814.26;113824;1195;22455;-77
2021/10/24 03:27:21;;;;;;;24.70;7.00;;;;;;;1.06;76.74;101812.80;113864;1195;22529;-76
2021/10/24 03:29:49;;;;;;;22.80;7.60;;;;;;;1.04;76.64;101809.40;113887;1195;24111;-76
2021/10/24 03:32:17;;;;;;;23.60;6.80;;;;;;;0.99;76.54;101806.21;113827;1195;23705;-77
2021/10/24 03:34:45;;;;;;;23.30;6.80;;;;;;;0.95;76.57;101806.08;113847;1195;22451;-77
2021/10/24 03:37:13;;;;;;;20.20;6.80;;;;;;;0.91;76.53;101804.70;113827;1195;24231;-80
2021/10/24 03:39:42;;;;;;;21.30;6.60;;;;;;;0.85;76.48;101808.64;114036;1180;22611;-76
2021/10/24 03:42:10;;;;;;;22.40;7.40;;;;;;;0.80;76.44;101812.68;114473;1195;22443;-77
2021/10/24 03:44:37;;;;;;;18.40;6.10;;;;;;;0.75;76.41;101810.58;114330;1195;26284;-77
2021/10/24 03:47:06;;;;;;;19.90;6.90;;;;;;;0.73;76.44;101809.27;114153;1195;22456;-76
2021/10/24 03:49:34;;;;;;;23.70;7.20;;;;;;;0.70;76.47;101807.27;114174;1195;25062;-77
2021/10/24 03:52:02;;;;;;;20.40;5.80;;;;;;;0.68;76.50;101807.04;114022;1195;22607;-77
2021/10/24 03:54:30;;;;;;;21.50;6.90;;;;;;;0.65;76.46;101804.71;113790;1195;24196;-76
2021/10/24 03:56:58;;;;;;;19.70;5.80;;;;;;;0.62;76.51;101805.46;113788;1195;22907;-77
2021/10/24 03:59:26;;;;;;;23.10;6.80;;;;;;;0.60;76.57;101809.91;113815;1195;24081;-77
2021/10/24 04:01:54;;;;;;;22.50;6.40;;;;;;;0.58;76.55;101812.24;113937;1195;25251;-76
2021/10/24 04:04:22;;;;;;;23.00;7.40;;;;;;;0.56;76.56;101807.49;113891;1194;23016;-77
2021/10/24 04:06:50;;;;;;;23.10;6.10;;;;;;;0.53;76.62;101809.66;113797;1189;22611;-76
2021/10/24 04:09:19;;;;;;;20.80;7.60;;;;;;;0.50;76.62;101812.59;113837;1189;23063;-76
2021/10/24 04:11:47;;;;;;;22.20;7.70;;;;;;;0.48;76.67;101816.34;113911;1195;25102;-76
2021/10/24 04:14:15;;;;;;;29.50;8.70;;;;;;;0.46;76.73;101815.37;113904;1195;23994;-76
2021/10/24 04:16:43;;;;;;;20.80;7.80;;;;;;;0.44;76.70;101818.64;113782;1195;22462;-77
2021/10/24 04:19:10;;;;;;;22.70;7.80;;;;;;;0.41;76.64;101816.10;113806;1196;23329;-76
2021/10/24 04:21:39;;;;;;;25.00;9.60;;;;;;;0.40;76.64;101817.18;113863;1195;22564;-76
2021/10/24 04:24:07;;;;;;;26.10;8.50;;;;;;;0.38;76.66;101812.67;113846;1195;25335;-76
2021/10/24 04:26:34;;;;;;;25.80;8.10;;;;;;;0.35;76.74;101810.59;113844;1195;22448;-76
2021/10/24 04:29:02;;;;;;;23.20;7.90;;;;;;;0.33;76.78;101808.98;113831;1195;22429;-76
2021/10/24 04:31:30;;;;;;;24.50;7.70;;;;;;;0.31;76.85;101809.83;113807;1195;25028;-76
2021/10/24 04:33:58;;;;;;;26.30;8.10;;;;;;;0.29;76.93;101809.48;113742;1195;22409;-76
2021/10/24 04:36:26;;;;;;;23.50;6.70;;;;;;;0.27;76.83;101812.28;113868;1195;22449;-76
2021/10/24 04:38:54;;;;;;;26.60;8.40;;;;;;;0.25;77.03;101817.75;113863;1195;22477;-76
2021/10/24 04:41:22;;;;;;;24.00;7.90;;;;;;;0.23;76.99;101817.33;113983;1195;22573;-76
2021/10/24 04:43:50;;;;;;;28.20;8.50;;;;;;;0.21;77.03;101816.84;113789;1192;25268;-77
2021/10/24 04:46:18;;;;;;;23.60;8.30;;;;;;;0.21;76.95;101818.48;113847;1195;23105;-76
2021/10/24 04:48:46;;;;;;;24.50;7.60;;;;;;;0.20;76.95;101823.24;113966;1194;22543;-76
2021/10/24 04:51:15;;;;;;;25.90;9.60;;;;;;;0.18;76.83;101828.08;113878;1194;25080;-77
2021/10/24 04:53:44;;;;;;;27.00;10.30;;;;;;;0.17;76.87;101833.09;113861;1194;24157;-76
2021/10/24 04:56:11;;;;;;;30.30;10.50;;;;;;;0.17;76.95;101831.36;113863;1194;22778;-76
2021/10/24 04:58:39;;;;;;;32.20;11.20;;;;;;;0.18;77.04;101829.03;113847;1195;25890;-76
2021/10/24 05:01:08;;;;;;;31.90;12.00;;;;;;;0.17;76.89;101830.73;113803;1195;25035;-76
2021/10/24 05:03:37;;;;;;;28.60;11.10;;;;;;;0.14;76.71;101830.61;113843;1195;22559;-77
2021/10/24 05:06:06;;;;;;;31.00;11.90;;;;;;;0.09;76.64;101834.63;113885;1195;22515;-77
2021/10/24 05:08:34;;;;;;;34.30;12.60;;;;;;;0.05;76.57;101831.66;113883;1195;22427;-76
2021/10/24 05:11:02;;;;;;;33.10;12.20;;;;;;;0.01;76.61;101833.56;113821;1195;22476;-76
2021/10/24 05:13:29;;;;;;;29.90;10.90;;;;;;;-0.01;76.75;101830.55;113832;1195;22437;-76
2021/10/24 05:15:58;;;;;;;34.60;10.80;;;;;;;-0.03;76.65;101834.13;113781;1195;22437;-75
2021/10/24 05:18:25;;;;;;;30.10;9.90;;;;;;;-0.05;76.66;101834.55;113836;1187;24163;-77
2021/10/24 05:20:53;;;;;;;36.20;11.50;;;;;;;-0.07;76.82;101832.80;113885;1195;22485;-77
2021/10/24 05:23:21;;;;;;;37.80;13.20;;;;;;;-0.10;76.81;101833.30;113803;1195;22536;-76
2021/10/24 05:25:50;;;;;;;47.90;15.70;;;;;;;-0.13;76.96;101836.65;113797;1195;24193;-76
2021/10/24 05:28:18;;;;;;;51.40;17.60;;;;;;;-0.15;77.08;101836.05;113886;1195;22439;-77
2021/10/24 05:30:45;;;;;;;54.40;18.40;;;;;;;-0.16;77.08;101836.67;113813;1195;22455;-76
2021/10/24 05:33:14;;;;;;;62.90;19.10;;;;;;;-0.16;77.15;101836.73;113795;1195;22456;-76
2021/10/24 05:35:42;;;;;;;68.40;21.60;;;;;;;-0.17;77.24;101836.41;113814;1189;23220;-77
2021/10/24 05:38:10;;;;;;;59.30;21.30;;;;;;;-0.19;77.24;101845.16;113846;1194;22514;-76
2021/10/24 05:40:38;;;;;;;55.10;20.30;;;;;;;-0.20;77.22;101846.39;113852;1195;24460;-76
2021/10/24 05:43:06;;;;;;;66.00;21.40;;;;;;;-0.22;77.25;101843.61;113982;1195;25238;-76
2021/10/24 05:45:35;;;;;;;52.70;18.90;;;;;;;-0.24;77.30;101851.65;113782;1195;22456;-76
2021/10/24 05:48:04;;;;;;;46.00;17.70;;;;;;;-0.24;77.51;101857.94;113860;1195;22430;-76
2021/10/24 05:50:31;;;;;;;42.40;16.90;;;;;;;-0.24;77.56;101862.96;113848;1195;22814;-76
2021/10/24 05:52:59;;;;;;;51.50;19.70;;;;;;;-0.23;77.61;101860.45;113890;1180;24883;-76
2021/10/24 05:55:27;;;;;;;59.60;21.20;;;;;;;-0.24;77.74;101862.41;113979;1194;24210;-76
2021/10/24 05:57:55;;;;;;;72.20;27.10;;;;;;;-0.23;77.79;101869.56;113821;1194;22905;-76
2021/10/24 06:00:24;;;;;;;69.30;33.50;;;;;;;-0.22;77.85;101871.52;114052;1194;22452;-76
2021/10/24 06:02:52;;;;;;;86.10;37.40;;;;;;;-0.20;77.94;101871.64;113852;1194;22433;-76
2021/10/24 06:05:20;;;;;;;91.90;39.50;;;;;;;-0.19;77.95;101879.33;113811;1194;25281;-77
2021/10/24 06:07:49;;;;;;;87.70;36.20;;;;;;;-0.17;78.14;101883.15;113911;1195;22712;-75
2021/10/24 06:10:20;;;;;;;88.00;38.10;;;;;;;-0.14;78.24;101887.82;113936;1194;22562;-76
2021/10/24 06:12:51;;;;;;;80.80;33.40;;;;;;;-0.13;78.34;101895.85;113882;1194;22399;-77
2021/10/24 06:15:21;;;;;;;88.10;31.10;;;;;;;-0.12;78.44;101899.56;113819;1194;26592;-76
2021/10/24 06:17:50;;;;;;;80.20;33.00;;;;;;;-0.10;78.51;101900.91;113999;1194;26338;-76
2021/10/24 06:20:20;;;;;;;75.40;34.20;;;;;;;-0.09;78.48;101900.06;114291;1195;25368;-76
2021/10/24 06:22:48;;;;;;;71.00;32.70;;;;;;;-0.06;78.46;101905.83;114040;1187;24110;-76
2021/10/24 06:25:18;;;;;;;70.70;31.20;;;;;;;-0.04;78.59;101912.30;114000;1195;25174;-76
2021/10/24 06:27:46;;;;;;;61.40;25.80;;;;;;;-0.02;78.68;101918.95;114125;1194;24305;-76
2021/10/24 06:30:17;;;;;;;57.30;23.80;;;;;;;-0.00;78.70;101920.06;113857;1194;25167;-76
2021/10/24 06:32:45;;;;;;;73.20;30.50;;;;;;;0.02;78.71;101917.84;113857;1195;22458;-76
2021/10/24 06:35:13;;;;;;;79.00;30.50;;;;;;;0.04;78.78;101923.36;113960;1195;22447;-77
2021/10/24 06:37:44;;;;;;;68.00;27.20;;;;;;;0.07;78.67;101926.23;113941;1194;22447;-76
2021/10/24 06:40:14;;;;;;;69.00;27.70;;;;;;;0.10;78.71;101928.94;113979;1194;24114;-76
2021/10/24 06:42:43;;;;;;;67.90;28.60;;;;;;;0.13;78.97;101927.66;113937;1195;22581;-76
2021/10/24 06:45:11;;;;;;;66.00;28.80;;;;;;;0.17;79.12;101937.52;113940;1195;22431;-76
2021/10/24 06:47:40;;;;;;;58.30;27.60;;;;;;;0.22;79.17;101937.69;114069;1189;22433;-76
2021/10/24 06:50:10;;;;;;;95.20;38.80;;;;;;;0.24;79.13;101934.19;114159;1195;25212;-76
2021/10/24 06:52:39;;;;;;;82.90;37.90;;;;;;;0.28;79.26;101936.54;113994;1195;25119;-76
2021/10/24 06:55:08;;;;;;;106.80;49.60;;;;;;;0.32;79.27;101939.66;113975;1195;22530;-78
2021/10/24 06:57:47;;;;;;;109.10;51.60;;;;;;;0.36;79.34;101942.55;114035;1190;24051;-78
2021/10/24 07:00:19;;;;;;;80.50;38.50;;;;;;;0.42;79.47;101942.33;114292;1195;22848;-77
2021/10/24 07:02:47;;;;;;;68.30;29.90;;;;;;;0.49;79.68;101943.52;114164;1194;22413;-78
2021/10/24 07:05:18;;;;;;;67.40;32.50;;;;;;;0.55;79.71;101945.20;114207;1195;23902;-77
2021/10/24 07:07:46;;;;;;;72.50;32.60;;;;;;;0.61;79.83;101946.15;113999;1195;22515;-77
2021/10/24 07:10:16;;;;;;;80.90;33.90;;;;;;;0.66;80.03;101948.59;114183;1195;24198;-78
2021/10/24 07:12:50;;;;;;;80.50;36.00;;;;;;;0.73;80.10;101949.01;114646;1194;23103;-79
2021/10/24 07:15:20;;;;;;;90.70;45.00;;;;;;;0.80;80.21;101955.08;114572;1195;22879;-78
2021/10/24 07:17:49;;;;;;;85.50;43.40;;;;;;;0.88;80.30;101953.06;114377;1195;22561;-78
2021/10/24 07:20:17;;;;;;;84.50;40.90;;;;;;;0.95;80.37;101950.64;114345;1194;23053;-77
2021/10/24 07:22:46;;;;;;;92.60;46.30;;;;;;;1.03;80.62;101952.39;114025;1195;22460;-78
2021/10/24 07:25:14;;;;;;;106.00;53.10;;;;;;;1.11;80.67;101950.30;114178;1195;23791;-78
2021/10/24 07:27:43;;;;;;;143.10;67.70;;;;;;;1.19;80.70;101950.09;114168;1195;22475;-79
2021/10/24 07:30:12;;;;;;;156.50;74.40;;;;;;;1.26;80.76;101945.30;114373;1195;25058;-78
2021/10/24 07:32:41;;;;;;;141.00;67.20;;;;;;;1.34;80.94;101950.98;114375;1180;22452;-76
2021/10/24 07:35:10;;;;;;;121.70;60.60;;;;;;;1.44;81.39;101954.41;113911;1189;22450;-77
2021/10/24 07:37:38;;;;;;;104.20;49.10;;;;;;;1.52;81.46;101957.98;114122;1195;25130;-77
2021/10/24 07:40:10;;;;;;;98.00;43.70;;;;;;;1.62;81.88;101954.29;113994;1195;22438;-76
2021/10/24 07:42:39;;;;;;;140.10;65.50;;;;;;;1.74;82.11;101958.27;114279;1195;25319;-78
2021/10/24 07:45:10;;;;;;;126.30;63.40;;;;;;;1.85;82.05;101961.45;114024;1190;22642;-76
2021/10/24 07:47:38;;;;;;;127.90;63.80;;;;;;;1.95;82.12;101965.73;114119;1195;25119;-75
2021/10/24 07:50:09;;;;;;;83.90;42.10;;;;;;;2.05;82.49;101968.59;114028;1195;22416;-75
2021/10/24 07:52:38;;;;;;;72.60;35.30;;;;;;;2.16;82.61;101968.68;113978;1189;22532;-75
2021/10/24 07:55:07;;;;;;;59.10;25.00;;;;;;;2.27;82.78;101971.68;114004;1190;23355;-76
2021/10/24 07:57:35;;;;;;;50.90;24.70;;;;;;;2.38;82.90;101970.13;113922;1195;22433;-74
2021/10/24 08:00:06;;;;;;;38.30;17.00;;;;;;;2.48;83.19;101969.03;113911;1195;22636;-74
2021/10/24 08:02:34;;;;;;;40.90;17.10;;;;;;;2.61;83.89;101966.45;113883;1195;22429;-74
2021/10/24 08:05:02;;;;;;;39.60;18.70;;;;;;;2.75;83.53;101973.16;113966;1195;22406;-73
2021/10/24 08:07:30;;;;;;;50.00;21.60;;;;;;;2.84;83.59;101972.52;114179;1195;22594;-76
2021/10/24 08:10:00;;;;;;;63.80;28.40;;;;;;;2.94;83.63;101972.16;114126;1190;22592;-77
2021/10/24 08:12:29;;;;;;;83.80;31.60;;;;;;;3.04;83.55;101974.67;114180;1195;22417;-76
2021/10/24 08:14:58;;;;;;;53.30;22.40;;;;;;;3.12;83.38;101973.46;113918;1195;25071;-76
2021/10/24 08:17:27;;;;;;;47.60;18.10;;;;;;;3.22;83.95;101970.20;114010;1195;22448;-76
2021/10/24 08:19:55;;;;;;;38.30;16.00;;;;;;;3.34;83.76;101972.46;114145;1195;22460;-76
2021/10/24 08:22:23;;;;;;;32.90;13.30;;;;;;;3.45;83.84;101971.48;114009;1195;22456;-76
2021/10/24 08:24:52;;;;;;;35.30;14.90;;;;;;;3.56;84.25;101971.05;114012;1195;22423;-75
2021/10/24 08:27:20;;;;;;;35.80;14.10;;;;;;;3.69;84.25;101971.64;114057;1195;22451;-77
2021/10/24 08:29:48;;;;;;;43.00;15.80;;;;;;;3.84;84.72;101972.15;114428;1195;23768;-78
2021/10/24 08:32:16;;;;;;;38.70;16.00;;;;;;;4.03;84.81;101973.52;114518;1190;22429;-78
2021/10/24 08:34:46;;;;;;;38.40;15.80;;;;;;;4.17;84.39;101966.91;114392;1195;25412;-77
2021/10/24 08:37:14;;;;;;;39.40;16.90;;;;;;;4.27;84.44;101966.29;114320;1195;22426;-80
2021/10/24 08:39:42;;;;;;;38.70;14.90;;;;;;;4.38;84.28;101969.20;114214;1195;22434;-79
2021/10/24 08:42:10;;;;;;;34.00;14.30;;;;;;;4.46;84.14;101966.30;114285;1195;22492;-77
2021/10/24 08:44:38;;;;;;;42.40;12.00;;;;;;;4.57;84.54;101961.62;114247;1195;22427;-79
2021/10/24 08:47:06;;;;;;;33.40;10.40;;;;;;;4.72;84.59;101965.23;114356;1195;22543;-79
2021/10/24 08:49:34;;;;;;;34.40;9.50;;;;;;;4.86;84.45;101966.88;114215;1195;22447;-79
2021/10/24 08:52:03;;;;;;;28.10;7.80;;;;;;;4.96;84.02;101971.13;114341;1195;25065;-79
2021/10/24 08:54:35;;;;;;;30.90;8.80;;;;;;;5.05;83.72;101971.41;114176;1195;22477;-77
2021/10/24 08:57:02;;;;;;;29.60;7.90;;;;;;;5.12;83.70;101959.06;114138;1195;22754;-78
2021/10/24 08:59:31;;;;;;;27.00;8.60;;;;;;;5.21;83.82;101958.33;114433;1195;25700;-78
2021/10/24 09:01:59;;;;;;;29.00;8.70;;;;;;;5.34;83.76;101959.54;114490;1195;22450;-78
2021/10/24 09:04:28;;;;;;;24.80;8.30;;;;;;;5.42;83.70;101958.00;114401;1190;50379;-78
2021/10/24 09:06:59;;;;;;;32.60;10.60;;;;;;;5.50;83.63;101963.65;114282;1196;23008;-78
2021/10/24 09:09:31;;;;;;;29.00;9.80;;;;;;;5.59;83.62;101960.77;114174;1196;22442;-78
2021/10/24 09:12:01;;;;;;;37.80;11.80;;;;;;;5.66;83.50;101956.67;114215;1196;22452;-79
2021/10/24 09:14:47;;;;;;;33.00;10.70;;;;;;;5.72;83.37;101955.06;114263;1196;25217;-78
2021/10/24 09:17:19;;;;;;;27.70;9.30;;;;;;;5.79;83.16;101951.94;114037;1196;26320;-78
2021/10/24 09:19:50;;;;;;;31.90;10.40;;;;;;;5.87;83.36;101952.31;114321;1196;22412;-78
2021/10/24 09:22:23;;;;;;;32.40;12.60;;;;;;;6.00;83.30;101953.73;114166;1196;23353;-78
2021/10/24 09:25:13;;;;;;;40.90;12.60;;;;;;;6.12;83.10;101953.17;114210;1196;22422;-77
2021/10/24 09:27:52;;;;;;;32.50;12.80;;;;;;;6.22;82.96;101953.81;114189;1196;23926;-77
2021/10/24 09:30:23;;;;;;;37.30;12.80;;;;;;;6.32;82.87;101948.90;114118;1196;22539;-77
2021/10/24 09:32:55;;;;;;;31.70;10.70;;;;;;;6.41;82.73;101947.54;114273;1196;25033;-77
2021/10/24 09:35:26;;;;;;;33.00;9.60;;;;;;;6.49;82.60;101947.02;114114;1196;22544;-76
2021/10/24 09:37:55;;;;;;;29.30;9.40;;;;;;;6.58;82.48;101947.95;114408;1196;23823;-79
2021/10/24 09:40:27;;;;;;;26.50;7.90;;;;;;;6.64;82.20;101948.38;114108;1196;25017;-79
2021/10/24 09:43:10;;;;;;;24.30;7.70;;;;;;;6.69;82.21;101947.79;114333;1197;22436;-77
2021/10/24 09:45:38;;;;;;;24.80;6.00;;;;;;;6.77;82.36;101951.90;113982;1198;23778;-77
2021/10/24 09:48:09;;;;;;;29.40;6.20;;;;;;;6.89;82.41;101947.57;113812;1198;22453;-77
2021/10/24 09:50:40;;;;;;;23.40;5.00;;;;;;;6.99;82.36;101946.43;113790;1196;22536;-76
2021/10/24 09:53:15;;;;;;;21.00;4.30;;;;;;;7.09;82.08;101941.23;113839;1196;22431;-76
2021/10/24 09:55:45;;;;;;;14.80;3.40;;;;;;;7.16;81.60;101942.73;113909;1196;22549;-78
2021/10/24 09:58:15;;;;;;;15.00;3.10;;;;;;;7.24;81.71;101940.50;114075;1196;22549;-77
2021/10/24 10:00:45;;;;;;;17.40;3.60;;;;;;;7.37;81.66;101941.06;115101;1196;22629;-77
2021/10/24 10:03:15;;;;;;;15.80;3.30;;;;;;;7.43;81.21;101936.85;114556;1196;22484;-76
2021/10/24 10:05:43;;;;;;;19.40;3.30;;;;;;;7.51;81.21;101930.33;113869;1196;26399;-76
2021/10/24 10:08:12;;;;;;;14.70;3.10;;;;;;;7.64;80.73;101932.83;113943;1196;22427;-77
2021/10/24 10:10:42;;;;;;;16.00;3.60;;;;;;;7.74;80.77;101930.23;114085;1196;25012;-76
2021/10/24 10:13:13;;;;;;;16.80;2.50;;;;;;;7.80;80.44;101935.87;114546;1196;25018;-76
2021/10/24 10:15:45;;;;;;;19.90;2.10;;;;;;;7.92;80.39;101935.05;114124;1190;22411;-76
2021/10/24 10:18:13;;;;;;;16.70;3.50;;;;;;;8.03;80.10;101930.27;114038;1196;24181;-77
2021/10/24 10:20:48;;;;;;;15.00;2.40;;;;;;;8.11;79.77;101927.12;113823;1196;24269;-77
2021/10/24 10:23:17;;;;;;;16.60;2.80;;;;;;;8.17;79.65;101925.84;114252;1196;22540;-77
2021/10/24 10:25:45;;;;;;;18.30;2.70;;;;;;;8.22;79.55;101921.79;114091;1196;22453;-78
2021/10/24 10:28:47;;;;;;;14.40;2.20;;;;;;;8.27;79.40;101916.65;114550;1196;25207;-78
2021/10/24 10:31:16;;;;;;;18.30;1.90;;;;;;;8.30;78.89;101917.70;114509;1196;24845;-82
2021/10/24 10:33:59;;;;;;;15.50;1.80;;;;;;;8.35;78.95;101912.77;114733;1196;25212;-79
2021/10/24 10:36:59;;;;;;;14.10;1.90;;;;;;;8.50;78.62;101916.41;114537;1196;22411;-78
2021/10/24 10:39:41;;;;;;;11.20;2.10;;;;;;;8.65;78.02;101917.33;117402;1196;22193;-79
2021/10/24 10:42:45;;;;;;;12.00;1.70;;;;;;;8.76;77.75;101912.42;115082;1196;24072;-80
2021/10/24 10:45:37;;;;;;;10.50;2.10;;;;;;;8.86;77.39;101913.42;114455;1196;25009;-78
2021/10/24 10:48:08;;;;;;;22.40;3.00;;;;;;;8.93;76.99;101915.20;114491;1196;22409;-79
2021/10/24 10:50:47;;;;;;;19.10;2.00;;;;;;;9.02;76.84;101904.61;114449;1190;26365;-80
2021/10/24 10:53:41;;;;;;;15.80;2.40;;;;;;;9.09;76.02;101901.84;114780;1196;23484;-79
2021/10/24 10:56:27;;;;;;;10.10;2.50;;;;;;;9.17;75.48;101898.64;114787;1196;22450;-78
2021/10/24 10:58:56;;;;;;;10.60;1.60;;;;;;;9.23;75.43;101901.80;114814;1196;23273;-78
2021/10/24 11:01:32;;;;;;;11.30;2.10;;;;;;;9.26;75.29;101897.52;114819;1196;22441;-78
2021/10/24 11:04:13;;;;;;;17.60;1.90;;;;;;;9.29;75.10;101893.77;114677;1197;24114;-78
2021/10/24 11:07:01;;;;;;;13.80;2.00;;;;;;;9.31;75.13;101897.71;114446;1197;22445;-78
2021/10/24 11:09:44;;;;;;;14.70;2.40;;;;;;;9.31;74.95;101893.19;114158;1190;24066;-78
2021/10/24 11:12:31;;;;;;;14.00;2.90;;;;;;;9.33;74.89;101891.30;114065;1196;25116;-78
2021/10/24 11:15:15;;;;;;;19.50;2.10;;;;;;;9.34;74.73;101889.85;114122;1196;22524;-78
2021/10/24 11:17:45;;;;;;;13.30;1.60;;;;;;;9.34;73.75;101890.95;114222;1196;22511;-78
2021/10/24 11:20:17;;;;;;;;;;;;;;;9.36;73.65;101887.49;114618;1190;22523;-76
2021/10/24 11:22:51;;;;;;;15.80;2.00;;;;;;;9.39;73.77;101886.16;115420;1196;22461;-79
2021/10/24 11:25:28;;;;;;;8.50;1.40;;;;;;;9.45;73.53;101882.75;115149;1196;22435;-79
2021/10/24 11:27:58;;;;;;;15.90;1.90;;;;;;;9.51;73.26;101882.78;114956;1197;25333;-76